Time;durP1;ratioP1;P1;durP2;ratioP2;P2;SDS_P1;SDS_P2;PMS_P1;PMS_P2;Temp;Humidity;BMP_temperature;BMP_pressure;BME280_temperature;BME280_humidity;BME280_pressure;Samples;Min_cycle;Max_cycle;Signal;HPM_P1;HPM_P2
2022/10/26 00:01:44;;;;;;;11.82;4.03;;;;;;;;;;5022187;28;20031;-72
2022/10/26 00:04:10;;;;;;;8.80;4.05;;;;;;;;;;5014078;28;20485;-72
2022/10/26 00:06:37;;;;;;;9.55;3.53;;;;;;;;;;5026792;28;20500;-72
2022/10/26 00:09:03;;;;;;;14.90;4.45;;;;;;;;;;5028025;28;20030;-74
2022/10/26 00:11:29;;;;;;;10.23;4.20;;;;;;;;;;5024553;28;20091;-71
2022/10/26 00:13:55;;;;;;;11.80;4.13;;;;;;;;;;5023149;28;20026;-72
2022/10/26 00:16:23;;;;;;;9.48;4.50;;;;;;;;;;5027740;28;20045;-72
2022/10/26 00:18:49;;;;;;;10.13;4.63;;;;;;;;;;5028255;28;20025;-72
2022/10/26 00:21:16;;;;;;;16.38;4.43;;;;;;;;;;5025221;28;20022;-72
2022/10/26 00:23:42;;;;;;;12.35;4.18;;;;;;;;;;5027755;28;20060;-72
2022/10/26 00:26:09;;;;;;;6.53;3.65;;;;;;;;;;5026029;28;21032;-72
2022/10/26 00:28:35;;;;;;;12.93;4.43;;;;;;;;;;5028303;28;20053;-73
2022/10/26 00:31:02;;;;;;;12.10;4.10;;;;;;;;;;5028136;28;20028;-71
2022/10/26 00:33:29;;;;;;;10.63;3.63;;;;;;;;;;5027456;28;20098;-71
2022/10/26 00:35:55;;;;;;;7.95;4.20;;;;;;;;;;5027942;28;20116;-72
2022/10/26 00:38:22;;;;;;;16.52;4.00;;;;;;;;;;5024044;28;20034;-72
2022/10/26 00:40:48;;;;;;;11.95;4.55;;;;;;;;;;5026009;28;20024;-71
2022/10/26 00:43:16;;;;;;;14.40;4.75;;;;;;;;;;5024661;28;20029;-72
2022/10/26 00:45:44;;;;;;;22.00;4.50;;;;;;;;;;5025049;28;20111;-72
2022/10/26 00:48:14;;;;;;;8.82;4.07;;;;;;;;;;5028029;28;20029;-72
2022/10/26 00:50:43;;;;;;;12.40;4.50;;;;;;;;;;5026272;28;20515;-72
2022/10/26 00:53:10;;;;;;;15.00;3.83;;;;;;;;;;5027566;28;20086;-72
2022/10/26 00:55:41;;;;;;;11.30;3.67;;;;;;;;;;5025941;28;20502;-73
2022/10/26 00:58:09;;;;;;;10.80;3.97;;;;;;;;;;5026536;28;20438;-73
2022/10/26 01:00:35;;;;;;;9.05;3.50;;;;;;;;;;5027169;28;20032;-73
2022/10/26 01:03:04;;;;;;;10.23;3.83;;;;;;;;;;5027356;28;20096;-73
2022/10/26 01:05:31;;;;;;;13.82;4.32;;;;;;;;;;5026100;28;20048;-72
2022/10/26 01:07:57;;;;;;;16.65;4.47;;;;;;;;;;5026396;28;20035;-73
2022/10/26 01:10:24;;;;;;;9.20;3.80;;;;;;;;;;5027394;28;20029;-73
2022/10/26 01:12:51;;;;;;;18.15;4.43;;;;;;;;;;5022528;28;20044;-75
2022/10/26 01:15:17;;;;;;;11.85;4.10;;;;;;;;;;5027118;28;20029;-74
2022/10/26 01:17:43;;;;;;;11.43;3.63;;;;;;;;;;5026959;28;20112;-74
2022/10/26 01:20:15;;;;;;;9.60;3.85;;;;;;;;;;5025208;28;20032;-73
2022/10/26 01:22:44;;;;;;;11.02;3.88;;;;;;;;;;5026897;28;20037;-73
2022/10/26 01:25:29;;;;;;;9.93;3.78;;;;;;;;;;5026256;28;20032;-74
2022/10/26 01:27:56;;;;;;;13.90;3.90;;;;;;;;;;5024931;28;20032;-73
2022/10/26 01:30:37;;;;;;;6.57;3.38;;;;;;;;;;5026352;28;20037;-73
2022/10/26 01:33:11;;;;;;;13.03;3.23;;;;;;;;;;5026803;28;20021;-74
2022/10/26 01:35:46;;;;;;;10.68;3.20;;;;;;;;;;5026745;28;20041;-72
2022/10/26 01:38:21;;;;;;;10.70;3.40;;;;;;;;;;5020633;28;20042;-73
2022/10/26 01:41:00;;;;;;;12.77;3.20;;;;;;;;;;5026615;28;20025;-73
2022/10/26 01:43:28;;;;;;;9.27;3.85;;;;;;;;;;5026721;28;20513;-72
2022/10/26 01:45:55;;;;;;;9.88;3.80;;;;;;;;;;5024693;28;20013;-73
2022/10/26 01:48:22;;;;;;;9.88;3.35;;;;;;;;;;5026849;28;20144;-73
2022/10/26 01:50:52;;;;;;;13.27;3.65;;;;;;;;;;5026414;28;20052;-74
2022/10/26 01:53:18;;;;;;;11.90;3.45;;;;;;;;;;5026545;28;20030;-73
2022/10/26 01:55:47;;;;;;;12.45;3.13;;;;;;;;;;5026172;28;20025;-73
2022/10/26 01:58:23;;;;;;;14.43;4.03;;;;;;;;;;5016687;28;20041;-72
2022/10/26 02:01:09;;;;;;;14.20;3.25;;;;;;;;;;5025956;28;20056;-72
2022/10/26 02:03:35;;;;;;;7.68;2.70;;;;;;;;;;5004634;28;20080;-73
2022/10/26 02:06:20;;;;;;;10.48;2.85;;;;;;;;;;5025644;28;20091;-73
2022/10/26 02:09:05;;;;;;;14.25;3.38;;;;;;;;;;5024974;28;20025;-74
2022/10/26 02:11:39;;;;;;;12.70;3.17;;;;;;;;;;5020421;28;20545;-73
2022/10/26 02:14:13;;;;;;;10.25;2.90;;;;;;;;;;5026226;28;20030;-73
2022/10/26 02:16:39;;;;;;;10.32;3.05;;;;;;;;;;5025518;28;20037;-72
2022/10/26 02:19:26;;;;;;;10.05;3.03;;;;;;;;;;5026152;28;20021;-72
2022/10/26 02:21:54;;;;;;;9.23;3.50;;;;;;;;;;5025597;28;20501;-73
2022/10/26 02:24:21;;;;;;;13.18;3.40;;;;;;;;;;5025571;28;20124;-74
2022/10/26 02:26:48;;;;;;;14.68;3.80;;;;;;;;;;5025979;28;20032;-72
2022/10/26 02:29:17;;;;;;;8.70;3.00;;;;;;;;;;5024347;28;20030;-72
2022/10/26 02:31:46;;;;;;;12.32;3.35;;;;;;;;;;5025828;28;20024;-73
2022/10/26 02:34:14;;;;;;;11.25;3.58;;;;;;;;;;5025788;28;20028;-72
2022/10/26 02:36:42;;;;;;;13.45;3.67;;;;;;;;;;5025535;28;20508;-72
2022/10/26 02:39:09;;;;;;;8.25;3.33;;;;;;;;;;5025460;28;20030;-73
2022/10/26 02:41:36;;;;;;;13.98;4.22;;;;;;;;;;5025758;28;20507;-72
2022/10/26 02:44:05;;;;;;;9.35;3.65;;;;;;;;;;5024111;28;20056;-72
2022/10/26 02:46:31;;;;;;;11.93;4.25;;;;;;;;;;5025642;28;20024;-72
2022/10/26 02:48:58;;;;;;;8.27;3.78;;;;;;;;;;5025739;28;20026;-72
2022/10/26 02:51:24;;;;;;;16.50;3.92;;;;;;;;;;5025444;28;20780;-72
2022/10/26 02:54:09;;;;;;;8.38;4.18;;;;;;;;;;5025358;28;20025;-72
2022/10/26 02:56:46;;;;;;;8.45;3.65;;;;;;;;;;5018733;28;20041;-72
2022/10/26 02:59:14;;;;;;;15.63;4.43;;;;;;;;;;5022286;28;20057;-72
2022/10/26 03:01:41;;;;;;;12.05;4.25;;;;;;;;;;5025637;28;20719;-71
2022/10/26 03:04:07;;;;;;;13.05;3.95;;;;;;;;;;5025269;28;20494;-71
2022/10/26 03:06:33;;;;;;;13.50;4.13;;;;;;;;;;5025306;28;20055;-72
2022/10/26 03:08:59;;;;;;;11.55;3.65;;;;;;;;;;5027421;28;20036;-73
2022/10/26 03:11:25;;;;;;;10.02;3.50;;;;;;;;;;5025645;28;20037;-72
2022/10/26 03:13:52;;;;;;;7.50;3.30;;;;;;;;;;5029482;28;20043;-73
2022/10/26 03:16:18;;;;;;;16.50;3.70;;;;;;;;;;5028790;28;20504;-73
2022/10/26 03:18:44;;;;;;;13.00;3.88;;;;;;;;;;5021746;28;20498;-73
2022/10/26 03:21:10;;;;;;;13.90;3.90;;;;;;;;;;5022564;28;20102;-72
2022/10/26 03:23:36;;;;;;;10.63;4.00;;;;;;;;;;5024417;28;20489;-72
2022/10/26 03:26:02;;;;;;;11.90;4.22;;;;;;;;;;5023200;28;20735;-72
2022/10/26 03:28:28;;;;;;;14.70;3.80;;;;;;;;;;5023613;28;20029;-72
2022/10/26 03:30:55;;;;;;;12.27;4.07;;;;;;;;;;5022652;28;20556;-72
2022/10/26 03:33:21;;;;;;;10.82;3.72;;;;;;;;;;5024390;28;20248;-72
2022/10/26 03:35:53;;;;;;;12.85;4.10;;;;;;;;;;5024137;28;20125;-72
2022/10/26 03:38:19;;;;;;;14.00;3.72;;;;;;;;;;5023759;28;20047;-72
2022/10/26 03:40:47;;;;;;;12.27;4.10;;;;;;;;;;5024306;28;20017;-72
2022/10/26 03:43:13;;;;;;;11.50;4.20;;;;;;;;;;5024278;28;20040;-72
2022/10/26 03:45:39;;;;;;;10.75;3.47;;;;;;;;;;5023672;28;20412;-72
2022/10/26 03:48:05;;;;;;;13.60;3.88;;;;;;;;;;5022340;28;20480;-72
2022/10/26 03:50:31;;;;;;;9.55;3.67;;;;;;;;;;5023837;28;20026;-72
2022/10/26 03:52:58;;;;;;;12.15;3.80;;;;;;;;;;5023509;28;20018;-72
2022/10/26 03:55:24;;;;;;;13.32;3.92;;;;;;;;;;5023118;28;20033;-72
2022/10/26 03:57:50;;;;;;;13.75;3.25;;;;;;;;;;5022237;28;20571;-72
2022/10/26 04:00:17;;;;;;;9.13;3.60;;;;;;;;;;5023624;28;20033;-72
2022/10/26 04:02:45;;;;;;;14.43;4.15;;;;;;;;;;5023898;28;20055;-71
2022/10/26 04:05:12;;;;;;;11.68;3.72;;;;;;;;;;5024116;28;20043;-72
2022/10/26 04:07:38;;;;;;;12.18;4.13;;;;;;;;;;5021994;28;20049;-72
2022/10/26 04:10:05;;;;;;;13.98;4.03;;;;;;;;;;5023473;28;20027;-72
2022/10/26 04:12:31;;;;;;;10.95;4.43;;;;;;;;;;5018758;28;20021;-72
2022/10/26 04:14:57;;;;;;;18.52;4.10;;;;;;;;;;5022861;28;20018;-72
2022/10/26 04:17:24;;;;;;;9.65;3.65;;;;;;;;;;5023651;28;20099;-72
2022/10/26 04:19:50;;;;;;;8.52;3.70;;;;;;;;;;5022062;28;20079;-72
2022/10/26 04:22:16;;;;;;;10.65;3.13;;;;;;;;;;5021377;28;20033;-72
2022/10/26 04:24:43;;;;;;;9.43;3.30;;;;;;;;;;5022642;28;20028;-74
2022/10/26 04:27:09;;;;;;;10.75;2.63;;;;;;;;;;5022255;28;20633;-73
2022/10/26 04:29:35;;;;;;;12.63;3.42;;;;;;;;;;5019104;28;20038;-73
2022/10/26 04:32:01;;;;;;;17.13;3.05;;;;;;;;;;5021047;28;20573;-72
2022/10/26 04:34:27;;;;;;;10.05;2.72;;;;;;;;;;5020944;28;20025;-73
2022/10/26 04:36:54;;;;;;;12.55;2.80;;;;;;;;;;5018380;28;20109;-73
2022/10/26 04:39:21;;;;;;;13.88;3.20;;;;;;;;;;5020777;28;20100;-73
2022/10/26 04:41:47;;;;;;;13.70;3.22;;;;;;;;;;5020630;28;20912;-74
2022/10/26 04:44:13;;;;;;;6.55;2.72;;;;;;;;;;5020726;28;20520;-72
2022/10/26 04:46:39;;;;;;;14.43;3.28;;;;;;;;;;5020089;28;20788;-72
2022/10/26 04:49:05;;;;;;;9.25;2.38;;;;;;;;;;5018899;28;20068;-73
2022/10/26 04:51:31;;;;;;;14.30;3.50;;;;;;;;;;5021209;28;20036;-72
2022/10/26 04:53:57;;;;;;;14.23;3.30;;;;;;;;;;5019785;28;20611;-72
2022/10/26 04:56:24;;;;;;;11.35;3.22;;;;;;;;;;5018828;28;20033;-72
2022/10/26 04:58:53;;;;;;;9.95;2.55;;;;;;;;;;5020123;28;20068;-72
2022/10/26 05:01:19;;;;;;;17.15;3.53;;;;;;;;;;5019119;28;20131;-73
2022/10/26 05:03:48;;;;;;;10.60;3.03;;;;;;;;;;5020279;28;20041;-74
2022/10/26 05:06:14;;;;;;;10.65;2.88;;;;;;;;;;5020131;28;20033;-72
2022/10/26 05:08:40;;;;;;;10.75;2.58;;;;;;;;;;5019233;28;20036;-72
2022/10/26 05:11:07;;;;;;;12.48;2.80;;;;;;;;;;5022266;28;20033;-72
2022/10/26 05:13:33;;;;;;;11.55;2.72;;;;;;;;;;5020120;28;20033;-72
2022/10/26 05:15:59;;;;;;;11.32;3.00;;;;;;;;;;5022729;28;20098;-72
2022/10/26 05:18:25;;;;;;;11.20;2.72;;;;;;;;;;5024790;28;20060;-73
2022/10/26 05:20:55;;;;;;;12.68;2.63;;;;;;;;;;5021852;28;20028;-72
2022/10/26 05:23:21;;;;;;;14.52;2.83;;;;;;;;;;5024041;28;20033;-71
2022/10/26 05:25:48;;;;;;;10.02;3.30;;;;;;;;;;5014673;28;20018;-71
2022/10/26 05:28:14;;;;;;;10.02;3.20;;;;;;;;;;5006964;28;20026;-72
2022/10/26 05:30:41;;;;;;;8.95;2.70;;;;;;;;;;5011310;28;20607;-71
2022/10/26 05:33:08;;;;;;;11.23;3.28;;;;;;;;;;5010476;28;20037;-71
2022/10/26 05:35:35;;;;;;;8.73;2.92;;;;;;;;;;5015969;28;20513;-71
2022/10/26 05:38:07;;;;;;;12.23;3.00;;;;;;;;;;5009931;28;20397;-71
2022/10/26 05:40:33;;;;;;;7.60;2.88;;;;;;;;;;5012488;28;20527;-72
2022/10/26 05:43:00;;;;;;;9.70;2.60;;;;;;;;;;5018439;28;20025;-73
2022/10/26 05:45:26;;;;;;;12.85;3.13;;;;;;;;;;5018374;28;20020;-73
2022/10/26 05:47:53;;;;;;;13.32;3.40;;;;;;;;;;5016234;28;20021;-72
2022/10/26 05:50:19;;;;;;;11.45;3.13;;;;;;;;;;5013245;28;20133;-72
2022/10/26 05:52:46;;;;;;;11.63;3.88;;;;;;;;;;5004577;28;20083;-72
2022/10/26 05:55:13;;;;;;;11.80;2.92;;;;;;;;;;5003192;28;20026;-72
2022/10/26 05:57:40;;;;;;;14.10;3.67;;;;;;;;;;5001471;28;20046;-72
2022/10/26 06:00:07;;;;;;;14.40;3.95;;;;;;;;;;5002935;28;20121;-73
2022/10/26 06:02:37;;;;;;;11.93;3.58;;;;;;;;;;5003126;28;20010;-72
2022/10/26 06:05:04;;;;;;;13.45;3.22;;;;;;;;;;5002921;28;20029;-72
2022/10/26 06:07:32;;;;;;;11.20;3.28;;;;;;;;;;5003158;28;20014;-72
2022/10/26 06:09:58;;;;;;;13.75;4.40;;;;;;;;;;5001497;28;20025;-72
2022/10/26 06:12:25;;;;;;;6.68;3.53;;;;;;;;;;5004350;28;20014;-72
2022/10/26 06:14:51;;;;;;;8.70;3.67;;;;;;;;;;5022809;28;20028;-73
2022/10/26 06:17:36;;;;;;;11.80;4.18;;;;;;;;;;5024028;28;20377;-72
2022/10/26 06:20:18;;;;;;;13.32;4.30;;;;;;;;;;5023057;28;20377;-72
2022/10/26 06:22:52;;;;;;;10.90;4.10;;;;;;;;;;5023795;28;20037;-72
2022/10/26 06:25:25;;;;;;;13.70;4.43;;;;;;;;;;5023727;28;20036;-72
2022/10/26 06:28:03;;;;;;;12.45;4.47;;;;;;;;;;5022800;28;20040;-72
2022/10/26 06:30:29;;;;;;;11.38;3.70;;;;;;;;;;5023412;28;20021;-72
2022/10/26 06:32:56;;;;;;;14.70;4.43;;;;;;;;;;5022607;28;20052;-73
2022/10/26 06:35:35;;;;;;;9.57;3.92;;;;;;;;;;5023372;28;20068;-73
2022/10/26 06:38:04;;;;;;;11.07;4.25;;;;;;;;;;5020874;28;20041;-72
2022/10/26 06:40:32;;;;;;;15.27;4.50;;;;;;;;;;5023444;28;20052;-72
2022/10/26 06:42:58;;;;;;;19.45;5.60;;;;;;;;;;5023407;28;20026;-73
2022/10/26 06:45:24;;;;;;;11.82;5.13;;;;;;;;;;5023718;28;20025;-72
2022/10/26 06:48:00;;;;;;;14.93;4.88;;;;;;;;;;5023487;28;20563;-72
2022/10/26 06:50:32;;;;;;;11.80;4.22;;;;;;;;;;5021982;28;20033;-73
2022/10/26 06:53:13;;;;;;;11.77;4.32;;;;;;;;;;5023410;28;20021;-72
2022/10/26 06:55:45;;;;;;;10.82;3.95;;;;;;;;;;5023614;28;20025;-71
2022/10/26 06:58:14;;;;;;;11.82;4.93;;;;;;;;;;5023476;28;20045;-72
2022/10/26 07:00:41;;;;;;;12.40;4.50;;;;;;;;;;5023252;28;20013;-72
2022/10/26 07:03:07;;;;;;;12.82;5.22;;;;;;;;;;5022108;28;20029;-72
2022/10/26 07:05:33;;;;;;;11.32;4.68;;;;;;;;;;5023071;28;20288;-72
2022/10/26 07:08:00;;;;;;;10.63;4.80;;;;;;;;;;5023310;28;20513;-72
2022/10/26 07:10:26;;;;;;;14.63;5.70;;;;;;;;;;5023212;28;20025;-74
2022/10/26 07:12:52;;;;;;;19.23;7.38;;;;;;;;;;5009527;28;20505;-73
2022/10/26 07:15:18;;;;;;;19.67;8.30;;;;;;;;;;5023662;28;20029;-73
2022/10/26 07:17:45;;;;;;;17.77;7.05;;;;;;;;;;5021785;28;20167;-73
2022/10/26 07:20:12;;;;;;;17.55;7.90;;;;;;;;;;5023399;28;20030;-73
2022/10/26 07:22:38;;;;;;;20.95;7.00;;;;;;;;;;5023400;28;20026;-72
2022/10/26 07:25:05;;;;;;;18.40;8.40;;;;;;;;;;5022697;28;20477;-72
2022/10/26 07:27:31;;;;;;;18.05;8.95;;;;;;;;;;5021850;28;20460;-72
2022/10/26 07:29:58;;;;;;;23.40;8.85;;;;;;;;;;5021667;28;20032;-72
2022/10/26 07:32:24;;;;;;;15.70;8.45;;;;;;;;;;5022284;28;20124;-72
2022/10/26 07:34:50;;;;;;;18.58;8.68;;;;;;;;;;5022784;28;20348;-72
2022/10/26 07:37:16;;;;;;;27.13;9.88;;;;;;;;;;5021556;28;20041;-73
2022/10/26 07:39:42;;;;;;;19.55;8.43;;;;;;;;;;5023435;28;20021;-73
2022/10/26 07:42:08;;;;;;;36.45;10.10;;;;;;;;;;5022773;28;20013;-73
2022/10/26 07:44:34;;;;;;;33.38;9.48;;;;;;;;;;5021804;28;20362;-73
2022/10/26 07:47:01;;;;;;;27.17;9.88;;;;;;;;;;5022628;28;20048;-73
2022/10/26 07:49:27;;;;;;;27.38;9.52;;;;;;;;;;5022949;28;20032;-73
2022/10/26 07:51:53;;;;;;;26.55;11.13;;;;;;;;;;5022640;28;20028;-72
2022/10/26 07:54:19;;;;;;;22.50;10.45;;;;;;;;;;5022380;28;20083;-73
2022/10/26 07:56:48;;;;;;;23.55;10.95;;;;;;;;;;5025764;28;20037;-73
2022/10/26 07:59:16;;;;;;;28.83;10.73;;;;;;;;;;5024894;28;20032;-72
2022/10/26 08:01:42;;;;;;;31.75;12.13;;;;;;;;;;5026311;28;20036;-72
2022/10/26 08:04:08;;;;;;;26.77;11.30;;;;;;;;;;5023454;28;20022;-73
2022/10/26 08:06:34;;;;;;;29.42;10.85;;;;;;;;;;5026338;28;20029;-72
2022/10/26 08:09:00;;;;;;;31.65;11.55;;;;;;;;;;5025023;28;20048;-72
2022/10/26 08:11:27;;;;;;;21.23;10.48;;;;;;;;;;5020886;28;20018;-73
2022/10/26 08:13:53;;;;;;;28.25;11.25;;;;;;;;;;5015360;28;20117;-73
2022/10/26 08:16:20;;;;;;;30.27;10.95;;;;;;;;;;5026259;28;20022;-72
2022/10/26 08:18:49;;;;;;;22.05;11.63;;;;;;;;;;5026447;28;20106;-73
2022/10/26 08:21:15;;;;;;;20.50;9.38;;;;;;;;;;5025662;28;20109;-73
2022/10/26 08:23:41;;;;;;;27.27;11.32;;;;;;;;;;5025875;28;20819;-73
2022/10/26 08:26:10;;;;;;;20.98;9.88;;;;;;;;;;5026023;28;20441;-73
2022/10/26 08:28:36;;;;;;;22.88;10.32;;;;;;;;;;5024311;28;20432;-73
2022/10/26 08:31:03;;;;;;;26.42;10.77;;;;;;;;;;5026272;28;20044;-74
2022/10/26 08:33:29;;;;;;;28.83;10.85;;;;;;;;;;5025179;28;20021;-74
2022/10/26 08:35:56;;;;;;;27.30;11.52;;;;;;;;;;5023943;28;20516;-74
2022/10/26 08:38:22;;;;;;;20.95;10.10;;;;;;;;;;5025617;28;20042;-72
2022/10/26 08:40:48;;;;;;;24.58;11.35;;;;;;;;;;5025730;28;20021;-72
2022/10/26 08:43:17;;;;;;;23.38;11.18;;;;;;;;;;5025458;28;20032;-73
2022/10/26 08:46:03;;;;;;;23.05;10.02;;;;;;;;;;5025585;28;20017;-73
2022/10/26 08:48:33;;;;;;;19.08;10.15;;;;;;;;;;5023588;28;20037;-72
2022/10/26 08:51:02;;;;;;;18.88;8.68;;;;;;;;;;5025746;28;20181;-72
2022/10/26 08:53:48;;;;;;;14.95;7.20;;;;;;;;;;5025705;28;20078;-73
2022/10/26 08:56:20;;;;;;;19.65;7.70;;;;;;;;;;5025108;28;20021;-72
2022/10/26 08:58:46;;;;;;;;;;;;;;;;;;5024016;28;20028;-73
2022/10/26 09:01:12;;;;;;;18.08;6.53;;;;;;;;;;5025343;28;19952;-73
2022/10/26 09:03:38;;;;;;;21.23;6.70;;;;;;;;;;5025355;28;20082;-72
2022/10/26 09:06:13;;;;;;;17.52;6.15;;;;;;;;;;5024889;28;20025;-72
2022/10/26 09:08:58;;;;;;;15.75;5.93;;;;;;;;;;5024053;28;20029;-72
2022/10/26 09:11:24;;;;;;;20.00;7.22;;;;;;;;;;5020980;28;20022;-73
2022/10/26 09:14:00;;;;;;;14.07;6.38;;;;;;;;;;5016023;28;20104;-72
2022/10/26 09:16:58;;;;;;;15.32;6.47;;;;;;;;;;5025312;28;20029;-73
2022/10/26 09:19:43;;;;;;;21.90;7.20;;;;;;;;;;5025718;28;20048;-72
2022/10/26 09:22:18;;;;;;;18.63;7.57;;;;;;;;;;5025316;28;20061;-72
2022/10/26 09:24:54;;;;;;;13.30;7.07;;;;;;;;;;5023586;28;20075;-72
2022/10/26 09:27:32;;;;;;;18.98;7.82;;;;;;;;;;5025333;28;20044;-72
2022/10/26 09:30:00;;;;;;;15.70;6.93;;;;;;;;;;5024513;28;20163;-72
2022/10/26 09:32:30;;;;;;;22.38;7.05;;;;;;;;;;5023568;28;20033;-72
2022/10/26 09:35:02;;;;;;;20.15;7.53;;;;;;;;;;5024463;28;20057;-72
2022/10/26 09:37:35;;;;;;;18.27;7.60;;;;;;;;;;5025036;28;20059;-72
2022/10/26 09:40:08;;;;;;;22.75;8.20;;;;;;;;;;5024525;28;20489;-72
2022/10/26 09:42:43;;;;;;;15.50;7.35;;;;;;;;;;5023389;28;20028;-71
2022/10/26 09:45:12;;;;;;;20.73;8.10;;;;;;;;;;5023110;28;20025;-74
2022/10/26 09:47:39;;;;;;;18.38;8.20;;;;;;;;;;5024891;28;20083;-72
2022/10/26 09:50:15;;;;;;;18.10;7.68;;;;;;;;;;5024428;28;20098;-72
2022/10/26 09:52:41;;;;;;;24.23;8.68;;;;;;;;;;5023276;28;20376;-72
2022/10/26 09:55:10;;;;;;;17.02;8.05;;;;;;;;;;5022896;28;20096;-71
2022/10/26 09:57:36;;;;;;;22.17;8.65;;;;;;;;;;5024374;28;20030;-73
2022/10/26 10:00:03;;;;;;;25.58;9.02;;;;;;;;;;5024305;28;20017;-72
2022/10/26 10:02:33;;;;;;;18.88;9.02;;;;;;;;;;5021249;28;20032;-72
2022/10/26 10:04:59;;;;;;;31.88;8.68;;;;;;;;;;5024504;28;20025;-72
2022/10/26 10:07:25;;;;;;;17.90;8.43;;;;;;;;;;5023996;28;20473;-72
2022/10/26 10:10:06;;;;;;;22.00;8.10;;;;;;;;;;5024389;28;20025;-72
2022/10/26 10:12:33;;;;;;;22.08;8.00;;;;;;;;;;5010319;28;20137;-72
2022/10/26 10:14:59;;;;;;;18.17;6.65;;;;;;;;;;5024214;28;20473;-73
2022/10/26 10:17:25;;;;;;;15.15;6.65;;;;;;;;;;5023802;28;20492;-72
2022/10/26 10:19:52;;;;;;;15.05;5.90;;;;;;;;;;5022244;28;20029;-72
2022/10/26 10:22:22;;;;;;;16.90;6.75;;;;;;;;;;5023090;28;20029;-72
2022/10/26 10:24:59;;;;;;;19.90;6.75;;;;;;;;;;5023868;28;20025;-72
2022/10/26 10:27:25;;;;;;;15.75;6.07;;;;;;;;;;5022339;28;20026;-72
2022/10/26 10:29:54;;;;;;;19.42;5.93;;;;;;;;;;5023794;28;20022;-72
2022/10/26 10:32:29;;;;;;;15.38;5.72;;;;;;;;;;5023920;28;20234;-72
2022/10/26 10:34:56;;;;;;;17.00;5.65;;;;;;;;;;5023656;28;20038;-72
2022/10/26 10:37:32;;;;;;;15.27;5.47;;;;;;;;;;5022719;28;20123;-72
2022/10/26 10:40:00;;;;;;;18.70;6.07;;;;;;;;;;5023346;28;20031;-72
2022/10/26 10:42:29;;;;;;;17.25;5.97;;;;;;;;;;5023964;28;20500;-72
2022/10/26 10:44:56;;;;;;;17.98;5.30;;;;;;;;;;5021911;28;20484;-72
2022/10/26 10:47:28;;;;;;;15.93;5.38;;;;;;;;;;5023643;28;20025;-73
2022/10/26 10:49:57;;;;;;;20.23;6.00;;;;;;;;;;5023582;28;20639;-73
2022/10/26 10:52:30;;;;;;;20.20;4.93;;;;;;;;;;5023114;28;20034;-73
2022/10/26 10:55:15;;;;;;;12.00;5.10;;;;;;;;;;5021858;28;20020;-72
2022/10/26 10:58:05;;;;;;;15.65;5.00;;;;;;;;;;5023685;28;20489;-72
2022/10/26 11:00:34;;;;;;;15.32;4.40;;;;;;;;;;5023636;28;20469;-72
2022/10/26 11:03:30;;;;;;;13.70;5.03;;;;;;;;;;5023666;28;20028;-73
2022/10/26 11:05:59;;;;;;;13.13;5.25;;;;;;;;;;5021734;28;20028;-72
2022/10/26 11:08:40;;;;;;;15.23;5.90;;;;;;;;;;5023575;28;20030;-71
2022/10/26 11:11:10;;;;;;;8.77;4.47;;;;;;;;;;5021602;28;20504;-73
2022/10/26 11:13:49;;;;;;;16.90;5.82;;;;;;;;;;5041903;28;20037;-72
2022/10/26 11:16:22;;;;;;;14.55;4.60;;;;;;;;;;5023058;28;20021;-73
2022/10/26 11:18:52;;;;;;;18.13;5.05;;;;;;;;;;5023488;28;20056;-73
2022/10/26 11:21:27;;;;;;;17.92;5.28;;;;;;;;;;5023089;28;20032;-72
2022/10/26 11:24:00;;;;;;;15.82;6.05;;;;;;;;;;5021896;28;20061;-72
2022/10/26 11:26:33;;;;;;;16.42;5.95;;;;;;;;;;5023121;28;20045;-73
2022/10/26 11:29:05;;;;;;;12.38;5.47;;;;;;;;;;5023021;28;20080;-72
2022/10/26 11:31:36;;;;;;;10.75;4.55;;;;;;;;;;5026796;28;20040;-72
2022/10/26 11:34:05;;;;;;;13.07;5.90;;;;;;;;;;5027099;28;20047;-73
2022/10/26 11:36:34;;;;;;;18.23;5.88;;;;;;;;;;5026409;28;20050;-72
2022/10/26 11:39:25;;;;;;;10.50;4.88;;;;;;;;;;5025145;28;20038;-72
2022/10/26 11:41:55;;;;;;;16.67;5.57;;;;;;;;;;5026811;28;20017;-72
2022/10/26 11:44:44;;;;;;;14.23;4.93;;;;;;;;;;5026602;28;20029;-73
2022/10/26 11:47:19;;;;;;;15.07;5.85;;;;;;;;;;5016054;28;20061;-73
2022/10/26 11:50:05;;;;;;;14.05;5.28;;;;;;;;;;5025178;28;20056;-74
2022/10/26 11:52:35;;;;;;;14.05;5.22;;;;;;;;;;5024721;28;20025;-71
2022/10/26 11:55:03;;;;;;;17.15;5.78;;;;;;;;;;5026201;28;20496;-72
2022/10/26 11:57:32;;;;;;;18.10;5.82;;;;;;;;;;5026308;28;20485;-71
2022/10/26 12:00:00;;;;;;;15.07;5.85;;;;;;;;;;5026297;28;20029;-71
2022/10/26 12:02:27;;;;;;;21.02;7.07;;;;;;;;;;5024892;28;20041;-71
2022/10/26 12:05:00;;;;;;;13.40;5.65;;;;;;;;;;5024530;28;20021;-72
2022/10/26 12:07:29;;;;;;;12.32;5.85;;;;;;;;;;5025834;28;20021;-73
2022/10/26 12:09:56;;;;;;;18.15;5.68;;;;;;;;;;5026209;28;20030;-72
2022/10/26 12:12:25;;;;;;;16.35;6.00;;;;;;;;;;5011886;28;20478;-72
2022/10/26 12:14:51;;;;;;;14.90;6.03;;;;;;;;;;5024812;28;20029;-72
2022/10/26 12:17:23;;;;;;;12.93;5.50;;;;;;;;;;5026191;28;20094;-72
2022/10/26 12:19:49;;;;;;;13.60;6.03;;;;;;;;;;5025632;28;20021;-73
2022/10/26 12:22:20;;;;;;;15.23;6.53;;;;;;;;;;5026142;28;20076;-72
2022/10/26 12:24:46;;;;;;;11.10;5.63;;;;;;;;;;5024680;28;20244;-73
2022/10/26 12:27:32;;;;;;;16.25;4.97;;;;;;;;;;5024660;28;20409;-72
2022/10/26 12:30:17;;;;;;;11.30;4.47;;;;;;;;;;5025906;28;20021;-73
2022/10/26 12:32:43;;;;;;;13.60;4.28;;;;;;;;;;5025735;28;20612;-73
2022/10/26 12:35:27;;;;;;;9.13;3.88;;;;;;;;;;5023780;28;20227;-73
2022/10/26 12:37:54;;;;;;;12.00;4.40;;;;;;;;;;5024386;28;20425;-72
2022/10/26 12:40:32;;;;;;;14.57;4.72;;;;;;;;;;5024492;28;20032;-73
2022/10/26 12:43:18;;;;;;;8.43;4.93;;;;;;;;;;5025429;28;20017;-74
2022/10/26 12:45:46;;;;;;;10.48;4.30;;;;;;;;;;5028086;28;20030;-72
2022/10/26 12:48:24;;;;;;;16.40;5.05;;;;;;;;;;5024091;28;20559;-72
2022/10/26 12:50:50;;;;;;;11.43;4.55;;;;;;;;;;5023916;28;20050;-73
2022/10/26 12:53:18;;;;;;;9.60;4.70;;;;;;;;;;5025167;28;20022;-74
2022/10/26 12:56:04;;;;;;;11.55;4.18;;;;;;;;;;5023449;28;20025;-73
2022/10/26 12:58:38;;;;;;;13.38;5.03;;;;;;;;;;5019338;28;20041;-73
2022/10/26 13:01:07;;;;;;;14.15;4.72;;;;;;;;;;5013091;28;20175;-75
2022/10/26 13:03:58;;;;;;;13.02;4.00;;;;;;;;;;5008244;28;20033;-75
2022/10/26 13:06:24;;;;;;;11.98;4.38;;;;;;;;;;5010185;28;20022;-75
2022/10/26 13:08:52;;;;;;;12.50;4.18;;;;;;;;;;5008934;28;20037;-75
2022/10/26 13:11:28;;;;;;;15.80;4.20;;;;;;;;;;5008639;28;20524;-74
2022/10/26 13:13:55;;;;;;;15.02;3.97;;;;;;;;;;5017598;28;20025;-76
2022/10/26 13:16:24;;;;;;;12.43;4.43;;;;;;;;;;5020243;28;20029;-75
2022/10/26 13:18:50;;;;;;;10.68;4.65;;;;;;;;;;5019840;28;20106;-74
2022/10/26 13:21:17;;;;;;;12.40;4.93;;;;;;;;;;5018104;28;20046;-75
2022/10/26 13:24:04;;;;;;;13.70;4.70;;;;;;;;;;5019334;28;20029;-74
2022/10/26 13:26:31;;;;;;;11.82;4.55;;;;;;;;;;5016792;28;20061;-74
2022/10/26 13:29:01;;;;;;;11.68;3.92;;;;;;;;;;5019646;28;20039;-75
2022/10/26 13:31:30;;;;;;;11.02;4.78;;;;;;;;;;5019645;28;20025;-75
2022/10/26 13:33:56;;;;;;;8.70;4.00;;;;;;;;;;5018189;28;20025;-75
2022/10/26 13:36:29;;;;;;;7.68;4.07;;;;;;;;;;5019569;28;20725;-74
2022/10/26 13:38:57;;;;;;;7.05;3.85;;;;;;;;;;5039274;28;20044;-74
2022/10/26 13:41:32;;;;;;;15.23;4.65;;;;;;;;;;5018261;28;20548;-73
2022/10/26 13:43:59;;;;;;;11.05;4.13;;;;;;;;;;5009333;28;20034;-72
2022/10/26 13:46:26;;;;;;;11.38;4.22;;;;;;;;;;5014814;28;21150;-74
2022/10/26 13:48:58;;;;;;;12.82;4.10;;;;;;;;;;5012747;28;20049;-73
2022/10/26 13:51:45;;;;;;;13.48;4.78;;;;;;;;;;5000486;28;20373;-72
2022/10/26 13:54:23;;;;;;;11.38;3.92;;;;;;;;;;5004646;28;20528;-73
2022/10/26 13:56:57;;;;;;;9.82;4.10;;;;;;;;;;5001736;28;20034;-73
2022/10/26 13:59:25;;;;;;;11.60;4.15;;;;;;;;;;5015881;28;20096;-72
2022/10/26 14:02:09;;;;;;;13.68;4.68;;;;;;;;;;5007236;28;20033;-74
2022/10/26 14:04:35;;;;;;;12.00;4.35;;;;;;;;;;5000149;28;20038;-72
2022/10/26 14:07:02;;;;;;;10.85;4.60;;;;;;;;;;5012932;28;20029;-72
2022/10/26 14:09:29;;;;;;;12.65;4.88;;;;;;;;;;5003090;28;20468;-72
2022/10/26 14:11:57;;;;;;;11.93;4.32;;;;;;;;;;5010695;28;20278;-72
2022/10/26 14:14:25;;;;;;;13.73;5.60;;;;;;;;;;5017591;28;20033;-72
2022/10/26 14:16:52;;;;;;;18.17;5.75;;;;;;;;;;5015773;28;20044;-72
2022/10/26 14:19:24;;;;;;;15.95;5.38;;;;;;;;;;5014426;28;20071;-72
2022/10/26 14:21:51;;;;;;;15.13;4.88;;;;;;;;;;5017212;28;20458;-72
2022/10/26 14:24:26;;;;;;;14.38;5.10;;;;;;;;;;5013570;28;20040;-72
2022/10/26 14:26:52;;;;;;;11.65;5.13;;;;;;;;;;5016168;28;20485;-72
2022/10/26 14:29:20;;;;;;;15.65;5.30;;;;;;;;;;5017846;28;20033;-72
2022/10/26 14:31:48;;;;;;;23.90;5.40;;;;;;;;;;5018488;28;20120;-72
2022/10/26 14:34:15;;;;;;;16.05;5.15;;;;;;;;;;5018226;28;20037;-72
2022/10/26 14:36:45;;;;;;;14.80;5.28;;;;;;;;;;5016785;28;20053;-73
2022/10/26 14:39:14;;;;;;;20.70;5.90;;;;;;;;;;5018712;28;20052;-72
2022/10/26 14:41:40;;;;;;;17.35;5.30;;;;;;;;;;5018152;28;20025;-72
2022/10/26 14:44:13;;;;;;;15.80;5.70;;;;;;;;;;5018280;28;20025;-72
2022/10/26 14:46:43;;;;;;;14.55;5.40;;;;;;;;;;5011497;28;20470;-73